Time;durP1;ratioP1;P1;durP2;ratioP2;P2;SDS_P1;SDS_P2;PMS_P1;PMS_P2;Temp;Humidity;BMP_temperature;BMP_pressure;BME280_temperature;BME280_humidity;BME280_pressure;Samples;Min_cycle;Max_cycle;Signal;HPM_P1;HPM_P2
2024/01/04 00:01:58;;;;;;;1.45;0.30;;;;;;;-5.65;100.00;99777.47;5071133;28;20032;-73
2024/01/04 00:04:23;;;;;;;1.13;0.35;;;;;;;-5.68;100.00;99742.66;5053118;28;20395;-72
2024/01/04 00:06:48;;;;;;;1.83;0.50;;;;;;;-5.81;100.00;99744.59;5080759;28;20032;-72
2024/01/04 00:09:14;;;;;;;3.60;0.60;;;;;;;-5.59;100.00;99769.94;5072132;28;20040;-72
2024/01/04 00:11:40;;;;;;;0.77;0.35;;;;;;;-5.62;100.00;99777.22;5054516;28;20537;-72
2024/01/04 00:14:07;;;;;;;2.03;0.40;;;;;;;-5.59;100.00;99775.19;5035990;28;20526;-71
2024/01/04 00:16:33;;;;;;;1.10;0.40;;;;;;;-5.57;100.00;99770.66;5071273;28;20040;-71
2024/01/04 00:18:59;;;;;;;1.33;0.50;;;;;;;-5.54;100.00;99785.31;5053560;28;20036;-72
2024/01/04 00:21:24;;;;;;;1.67;0.63;;;;;;;-5.51;100.00;99771.94;5053407;28;20123;-74
2024/01/04 00:23:49;;;;;;;0.70;0.32;;;;;;;-5.49;100.00;99777.91;5053157;28;20072;-72
2024/01/04 00:26:15;;;;;;;1.52;0.40;;;;;;;-5.61;100.00;99784.13;5053244;28;20041;-73
2024/01/04 00:28:40;;;;;;;1.20;0.43;;;;;;;-5.77;100.00;99758.28;5036617;28;20097;-71
2024/01/04 00:31:06;;;;;;;1.52;0.40;;;;;;;-5.57;100.00;99781.13;5036330;28;20110;-72
2024/01/04 00:33:31;;;;;;;1.38;0.45;;;;;;;-5.56;100.00;99797.69;5053445;28;20443;-72
2024/01/04 00:35:56;;;;;;;1.08;0.40;;;;;;;-5.62;100.00;99792.94;5053359;28;20036;-71
2024/01/04 00:38:23;;;;;;;1.98;0.88;;;;;;;-5.62;100.00;99796.41;5071545;28;20123;-71
2024/01/04 00:40:48;;;;;;;7.57;0.50;;;;;;;-5.60;100.00;99807.56;5070580;28;20040;-71
2024/01/04 00:43:13;;;;;;;2.40;0.68;;;;;;;-5.67;100.00;99795.91;5035964;28;20144;-72
2024/01/04 00:45:39;;;;;;;2.10;0.60;;;;;;;-5.57;100.00;99832.72;5036178;28;20079;-72
2024/01/04 00:48:05;;;;;;;3.20;0.70;;;;;;;-5.63;100.00;99815.66;5019857;28;20032;-71
2024/01/04 00:50:30;;;;;;;0.85;0.40;;;;;;;-5.63;100.00;99841.06;5072789;28;20498;-71
2024/01/04 00:52:55;;;;;;;2.88;0.45;;;;;;;-5.63;100.00;99835.81;5036969;28;20060;-71
2024/01/04 00:55:21;;;;;;;3.20;0.40;;;;;;;-5.66;100.00;99829.03;5040430;28;20033;-71
2024/01/04 00:57:46;;;;;;;1.73;0.60;;;;;;;-5.66;100.00;99829.03;5040126;28;20035;-72
2024/01/04 01:00:12;;;;;;;1.30;0.60;;;;;;;-5.68;100.00;99839.63;5055939;28;20487;-71
2024/01/04 01:02:37;;;;;;;1.95;0.30;;;;;;;-5.70;100.00;99836.28;5074800;28;20032;-71
2024/01/04 01:05:03;;;;;;;1.05;0.40;;;;;;;-5.65;100.00;99830.69;5022621;28;20055;-72
2024/01/04 01:07:28;;;;;;;2.00;0.60;;;;;;;-5.70;100.00;99838.06;5055855;28;20032;-71
2024/01/04 01:09:54;;;;;;;2.03;0.50;;;;;;;-5.65;100.00;99853.47;5073967;28;20040;-71
2024/01/04 01:12:19;;;;;;;1.38;0.50;;;;;;;-5.65;100.00;99829.88;5074106;28;20031;-72
2024/01/04 01:14:45;;;;;;;2.85;0.50;;;;;;;-5.64;100.00;99848.09;5040054;28;20024;-74
2024/01/04 01:17:10;;;;;;;2.03;0.63;;;;;;;-5.63;100.00;99862.84;5039612;28;20040;-70
2024/01/04 01:19:37;;;;;;;1.60;0.50;;;;;;;-5.58;100.00;99860.72;5056105;28;20078;-71
2024/01/04 01:22:02;;;;;;;1.45;0.70;;;;;;;-5.87;100.00;99818.41;5056285;28;20059;-72
2024/01/04 01:24:28;;;;;;;3.03;0.77;;;;;;;-5.82;100.00;99845.09;5046145;28;20052;-71
2024/01/04 01:26:53;;;;;;;0.73;0.40;;;;;;;-5.67;100.00;99866.66;5074356;28;20024;-70
2024/01/04 01:29:18;;;;;;;2.35;0.63;;;;;;;-5.67;100.00;99859.63;5073965;28;20036;-71
2024/01/04 01:31:44;;;;;;;2.40;0.65;;;;;;;-5.82;100.00;99849.53;5022706;28;20052;-71
2024/01/04 01:34:09;;;;;;;3.90;0.75;;;;;;;-5.65;100.00;99867.38;5073895;28;20020;-74
2024/01/04 01:36:35;;;;;;;5.95;0.50;;;;;;;-5.83;100.00;99853.91;5073702;28;20028;-72
2024/01/04 01:39:00;;;;;;;1.58;0.50;;;;;;;-5.67;100.00;99891.06;5055531;28;20081;-71
2024/01/04 01:41:26;;;;;;;2.78;0.63;;;;;;;-5.73;100.00;99886.34;5072379;28;20074;-71
2024/01/04 01:43:51;;;;;;;2.20;0.65;;;;;;;-5.70;100.00;99880.00;5075315;28;20035;-72
2024/01/04 01:46:18;;;;;;;2.20;0.52;;;;;;;-5.71;100.00;99879.16;5055467;28;20033;-71
2024/01/04 01:48:44;;;;;;;1.38;0.52;;;;;;;-5.72;100.00;99848.69;5055732;28;20248;-70
2024/01/04 01:51:10;;;;;;;1.38;0.50;;;;;;;-5.80;100.00;99877.25;5055155;28;20028;-72
2024/01/04 01:53:37;;;;;;;0.95;0.55;;;;;;;-5.73;100.00;99890.72;5055224;28;20017;-71
2024/01/04 01:56:04;;;;;;;1.38;0.70;;;;;;;-5.86;100.00;99884.75;5038403;28;20032;-72
2024/01/04 01:58:30;;;;;;;1.73;0.60;;;;;;;-5.79;100.00;99875.50;5073409;28;20028;-71
2024/01/04 02:00:55;;;;;;;3.78;0.82;;;;;;;-5.72;100.00;99902.88;5055474;28;20086;-72
2024/01/04 02:03:23;;;;;;;1.75;0.55;;;;;;;-5.74;100.00;99894.28;5038731;28;20063;-71
2024/01/04 02:05:48;;;;;;;2.95;0.70;;;;;;;-5.76;100.00;99911.91;5054700;28;20063;-72
2024/01/04 02:08:13;;;;;;;1.08;0.50;;;;;;;-6.01;100.00;99865.84;5055046;28;20064;-71
2024/01/04 02:10:39;;;;;;;2.80;0.90;;;;;;;-5.74;100.00;99910.00;5073042;28;20029;-71
2024/01/04 02:13:05;;;;;;;2.78;0.75;;;;;;;-5.75;100.00;99914.44;5055137;28;20032;-72
2024/01/04 02:15:30;;;;;;;2.20;0.43;;;;;;;-5.77;100.00;99918.94;5072818;28;20028;-71
2024/01/04 02:17:56;;;;;;;1.20;0.50;;;;;;;-5.78;100.00;99942.66;5073028;28;20032;-71
2024/01/04 02:20:21;;;;;;;4.50;0.70;;;;;;;-5.81;100.00;99932.41;5055840;28;20025;-73
2024/01/04 02:22:52;;;;;;;2.70;0.57;;;;;;;-5.99;100.00;99908.47;5055613;28;20579;-71
2024/01/04 02:25:18;;;;;;;5.65;0.73;;;;;;;-5.82;100.00;99942.03;5072862;28;20024;-71
2024/01/04 02:27:44;;;;;;;1.65;0.60;;;;;;;-5.85;100.00;99931.78;5072750;28;20488;-72
2024/01/04 02:30:11;;;;;;;2.47;0.90;;;;;;;-5.90;100.00;99952.25;5054924;28;20028;-71
2024/01/04 02:32:37;;;;;;;1.58;0.60;;;;;;;-6.10;100.00;99917.09;5055065;28;20038;-71
2024/01/04 02:35:03;;;;;;;3.80;0.60;;;;;;;-5.92;100.00;99920.94;5072523;28;20031;-71
2024/01/04 02:37:28;;;;;;;0.77;0.40;;;;;;;-5.95;100.00;99954.44;5054235;28;20051;-71
2024/01/04 02:39:53;;;;;;;3.42;0.73;;;;;;;-5.97;100.00;99935.34;5072086;28;20051;-72
2024/01/04 02:42:19;;;;;;;4.90;0.80;;;;;;;-6.01;100.00;99957.50;5054195;28;20056;-71
2024/01/04 02:44:44;;;;;;;1.20;0.45;;;;;;;-6.18;100.00;99925.53;5054351;28;20479;-71
2024/01/04 02:47:09;;;;;;;2.70;0.50;;;;;;;-6.03;100.00;99951.53;5054092;28;20078;-71
2024/01/04 02:49:35;;;;;;;0.88;0.40;;;;;;;-6.05;100.00;99948.22;5072155;28;20029;-71
2024/01/04 02:52:00;;;;;;;3.83;0.55;;;;;;;-6.07;100.00;99950.09;5054213;28;20032;-70
2024/01/04 02:54:25;;;;;;;2.42;0.73;;;;;;;-6.04;100.00;99968.19;5071778;28;20036;-70
2024/01/04 02:56:51;;;;;;;4.25;0.85;;;;;;;-6.02;100.00;99963.69;5037344;28;20025;-73
2024/01/04 02:59:16;;;;;;;4.10;0.50;;;;;;;-5.99;100.00;99968.72;5054387;28;20038;-73
2024/01/04 03:01:43;;;;;;;2.60;0.73;;;;;;;-6.02;100.00;99954.03;5055500;28;20028;-72
2024/01/04 03:04:09;;;;;;;3.22;0.70;;;;;;;-5.99;100.00;99973.94;5054605;28;20028;-71
2024/01/04 03:06:34;;;;;;;5.28;0.80;;;;;;;-6.02;100.00;99974.16;5037368;28;20039;-71
2024/01/04 03:09:00;;;;;;;1.25;0.50;;;;;;;-5.92;100.00;99980.38;5053953;28;20035;-71
2024/01/04 03:11:25;;;;;;;1.58;0.47;;;;;;;-5.94;100.00;99993.59;5073069;28;20032;-72
2024/01/04 03:13:50;;;;;;;1.48;0.45;;;;;;;-5.96;100.00;99992.03;5053703;28;20502;-70
2024/01/04 03:16:19;;;;;;;2.35;0.57;;;;;;;-6.28;100.00;99942.88;5053487;28;20140;-71
2024/01/04 03:18:44;;;;;;;1.45;0.50;;;;;;;-5.98;100.00;99975.59;5071119;28;20081;-71
2024/01/04 03:21:10;;;;;;;0.90;0.40;;;;;;;-6.01;100.00;99983.69;5053948;28;20068;-71
2024/01/04 03:23:35;;;;;;;2.35;0.60;;;;;;;-5.97;100.00;100009.53;5037697;28;20109;-71
2024/01/04 03:26:00;;;;;;;2.45;0.40;;;;;;;-5.95;100.00;100007.66;5071808;28;20449;-71
2024/01/04 03:28:26;;;;;;;3.53;0.50;;;;;;;-5.94;100.00;100008.47;5071722;28;20150;-71
2024/01/04 03:30:51;;;;;;;3.08;0.50;;;;;;;-6.10;100.00;99976.50;5037365;28;20032;-71
2024/01/04 03:33:18;;;;;;;3.75;0.70;;;;;;;-5.95;100.00;100001.56;5071768;28;20039;-72
2024/01/04 03:35:43;;;;;;;2.65;0.55;;;;;;;-5.98;100.00;100002.63;5071546;28;20093;-72
2024/01/04 03:38:09;;;;;;;3.33;0.75;;;;;;;-6.00;100.00;100007.13;5053501;28;20103;-71
2024/01/04 03:40:34;;;;;;;4.30;0.55;;;;;;;-5.96;100.00;100021.69;5053898;28;20033;-72
2024/01/04 03:43:02;;;;;;;3.95;0.70;;;;;;;-5.93;100.00;100021.47;5049942;28;20587;-71
2024/01/04 03:45:46;;;;;;;3.60;0.70;;;;;;;-5.93;100.00;100031.09;5009743;28;20662;-72
2024/01/04 03:48:12;;;;;;;2.45;0.70;;;;;;;-5.95;100.00;100028.59;4993925;28;20128;-72
2024/01/04 03:50:37;;;;;;;1.77;0.50;;;;;;;-6.12;100.00;99994.97;5024691;28;20042;-72
2024/01/04 03:53:03;;;;;;;1.63;0.45;;;;;;;-6.10;100.00;100005.31;5010276;28;20056;-71
2024/01/04 03:55:28;;;;;;;1.25;0.65;;;;;;;-5.95;100.00;100036.47;5010957;28;20508;-71
2024/01/04 03:57:53;;;;;;;2.83;0.70;;;;;;;-6.18;100.00;99995.41;4994820;28;20120;-71
2024/01/04 04:00:19;;;;;;;1.42;0.40;;;;;;;-5.97;100.00;100040.97;5009274;28;20038;-70
2024/01/04 04:02:44;;;;;;;2.25;0.50;;;;;;;-6.08;100.00;100027.00;5009395;28;20121;-71
2024/01/04 04:05:10;;;;;;;2.50;0.73;;;;;;;-6.05;100.00;100035.47;4992238;28;20030;-70
2024/01/04 04:07:35;;;;;;;2.88;0.43;;;;;;;-5.98;100.00;100054.19;4992957;28;20033;-71
2024/01/04 04:10:02;;;;;;;3.90;0.60;;;;;;;-5.95;100.00;100064.44;4992736;28;20516;-71
2024/01/04 04:12:27;;;;;;;1.25;0.60;;;;;;;-5.95;100.00;100059.19;4992878;28;20026;-73
2024/01/04 04:14:54;;;;;;;1.40;0.47;;;;;;;-6.12;100.00;100036.00;5009759;28;20556;-73
2024/01/04 04:17:20;;;;;;;1.88;0.47;;;;;;;-5.99;100.00;100078.72;4976902;28;20038;-72
2024/01/04 04:19:46;;;;;;;1.95;0.60;;;;;;;-6.05;100.00;100066.06;5009464;28;20040;-72
2024/01/04 04:22:11;;;;;;;1.40;0.50;;;;;;;-5.98;100.00;100069.91;4996144;28;20116;-71
2024/01/04 04:24:37;;;;;;;2.75;0.93;;;;;;;-5.99;100.00;100076.94;5049499;28;20021;-72
2024/01/04 04:27:02;;;;;;;2.55;0.50;;;;;;;-6.01;100.00;100075.34;5060845;28;20044;-73
2024/01/04 04:29:28;;;;;;;2.60;0.57;;;;;;;-6.15;100.00;100055.41;5073635;28;20036;-72
2024/01/04 04:31:54;;;;;;;1.33;0.47;;;;;;;-6.57;100.00;100012.19;5058967;28;20021;-71
2024/01/04 04:34:22;;;;;;;2.08;0.60;;;;;;;-6.15;100.00;100058.84;5056156;28;20508;-71
2024/01/04 04:36:48;;;;;;;1.88;0.40;;;;;;;-6.02;100.00;100090.25;5070443;28;20035;-71
2024/01/04 04:39:13;;;;;;;3.25;0.80;;;;;;;-6.34;100.00;100047.19;5070087;28;20044;-71
2024/01/04 04:41:39;;;;;;;2.35;0.73;;;;;;;-6.23;100.00;100061.19;5056202;28;20065;-71
2024/01/04 04:44:05;;;;;;;2.90;0.68;;;;;;;-6.26;100.00;100076.28;5074772;28;20039;-71
2024/01/04 04:46:30;;;;;;;3.67;0.93;;;;;;;-6.27;100.00;100099.00;5056553;28;20123;-72
2024/01/04 04:48:57;;;;;;;1.67;0.50;;;;;;;-6.40;100.00;100109.50;5041505;28;20056;-72
2024/01/04 04:51:23;;;;;;;2.05;0.70;;;;;;;-6.58;100.00;100112.59;5077532;28;20029;-71
2024/01/04 04:53:48;;;;;;;2.72;0.68;;;;;;;-6.69;100.00;100111.56;5057151;28;20030;-71
2024/01/04 04:56:13;;;;;;;1.65;0.57;;;;;;;-6.73;100.00;100109.25;5073332;28;20039;-70
2024/01/04 04:58:39;;;;;;;1.58;0.50;;;;;;;-6.82;100.00;100118.56;5056568;28;20031;-71
2024/01/04 05:01:04;;;;;;;3.28;0.60;;;;;;;-6.91;100.00;100148.78;5039698;28;20479;-71
2024/01/04 05:03:32;;;;;;;1.75;0.70;;;;;;;-6.87;100.00;100120.66;5055987;28;20082;-71
2024/01/04 05:05:57;;;;;;;1.83;0.65;;;;;;;-6.97;100.00;100137.91;5023216;28;20021;-71
2024/01/04 05:08:23;;;;;;;2.03;0.85;;;;;;;-7.07;100.00;100147.31;5039929;28;20043;-70
2024/01/04 05:10:48;;;;;;;1.73;0.70;;;;;;;-7.10;100.00;100149.19;5074503;28;20483;-71
2024/01/04 05:13:13;;;;;;;1.52;0.70;;;;;;;-7.17;100.00;100147.94;5056562;28;20037;-71
2024/01/04 05:15:39;;;;;;;4.07;0.90;;;;;;;-7.26;100.00;100147.69;5059094;28;20031;-70
2024/01/04 05:18:04;;;;;;;2.13;0.60;;;;;;;-7.25;100.00;100147.59;5056302;28;20035;-71
2024/01/04 05:20:30;;;;;;;1.90;0.80;;;;;;;-7.24;100.00;100149.28;5056440;28;20032;-71
2024/01/04 05:22:57;;;;;;;3.70;0.80;;;;;;;-7.34;100.00;100169.94;5055997;28;20032;-70
2024/01/04 05:25:22;;;;;;;1.85;0.80;;;;;;;-7.42;100.00;100160.94;5055991;28;20115;-70
2024/01/04 05:27:47;;;;;;;3.55;1.00;;;;;;;-7.38;100.00;100178.09;5079307;28;20044;-70
2024/01/04 05:30:14;;;;;;;2.83;1.35;;;;;;;-7.41;100.00;100186.16;5061318;28;20036;-70
2024/01/04 05:32:39;;;;;;;3.63;1.05;;;;;;;-7.48;100.00;100182.22;5057404;28;20044;-69
2024/01/04 05:35:06;;;;;;;5.85;1.17;;;;;;;-7.56;100.00;100193.19;5022483;28;20032;-71
2024/01/04 05:37:31;;;;;;;1.45;0.88;;;;;;;-7.63;100.00;100177.06;5056093;28;20123;-71
2024/01/04 05:39:56;;;;;;;3.22;1.08;;;;;;;-7.66;100.00;100194.72;5038136;28;20126;-71
2024/01/04 05:42:22;;;;;;;2.92;0.82;;;;;;;-7.72;100.00;100188.09;5055256;28;20135;-71
2024/01/04 05:44:47;;;;;;;2.40;0.80;;;;;;;-7.69;100.00;100203.56;5024173;28;20029;-71
2024/01/04 05:47:13;;;;;;;3.20;1.00;;;;;;;-7.69;100.00;100194.91;5074811;28;20107;-71
2024/01/04 05:49:38;;;;;;;1.40;0.65;;;;;;;-7.76;100.00;100210.13;5073763;28;20077;-71
2024/01/04 05:52:04;;;;;;;2.35;0.80;;;;;;;-7.74;100.00;100210.88;5073318;28;20028;-71
2024/01/04 05:54:29;;;;;;;7.15;1.25;;;;;;;-7.78;100.00;100216.38;5038395;28;20032;-71
2024/01/04 05:56:55;;;;;;;3.90;1.10;;;;;;;-7.78;100.00;100243.34;5055168;28;20143;-71
2024/01/04 05:59:24;;;;;;;4.75;0.88;;;;;;;-7.92;100.00;100205.03;5054923;28;20115;-71
2024/01/04 06:01:54;;;;;;;4.03;0.93;;;;;;;-7.80;100.00;100226.94;5055972;28;20036;-71
2024/01/04 06:04:19;;;;;;;3.58;0.88;;;;;;;-7.79;100.00;100241.66;5073476;28;20064;-71
2024/01/04 06:06:46;;;;;;;2.20;0.85;;;;;;;-7.81;100.00;100223.47;5043787;28;20059;-71
2024/01/04 06:09:11;;;;;;;2.47;1.20;;;;;;;-7.91;100.00;100211.06;5038835;28;20032;-70
2024/01/04 06:11:38;;;;;;;2.63;1.00;;;;;;;-7.82;100.00;100234.84;5072896;28;20074;-70
2024/01/04 06:14:05;;;;;;;3.03;1.20;;;;;;;-7.87;100.00;100233.47;5054787;28;20510;-70
2024/01/04 06:16:31;;;;;;;2.60;1.08;;;;;;;-7.77;100.00;100244.19;5072084;28;20406;-70
2024/01/04 06:18:57;;;;;;;1.15;0.70;;;;;;;-7.78;100.00;100248.56;5055282;28;20127;-71
2024/01/04 06:21:22;;;;;;;2.22;1.10;;;;;;;-7.81;100.00;100257.44;5071937;28;20056;-71
2024/01/04 06:23:47;;;;;;;3.25;1.30;;;;;;;-7.83;100.00;100263.69;5054570;28;20033;-70
2024/01/04 06:26:20;;;;;;;4.80;1.10;;;;;;;-7.84;100.00;100285.53;5054669;28;20066;-72
2024/01/04 06:28:45;;;;;;;3.53;1.10;;;;;;;-7.83;100.00;100280.19;5054522;28;20032;-71
2024/01/04 06:31:11;;;;;;;2.38;1.10;;;;;;;-7.85;100.00;100281.19;5054932;28;20093;-70
2024/01/04 06:33:36;;;;;;;2.33;1.10;;;;;;;-7.81;100.00;100290.56;5072568;28;20119;-71
2024/01/04 06:36:02;;;;;;;3.45;1.05;;;;;;;-7.77;100.00;100296.41;5072204;28;20062;-71
2024/01/04 06:38:28;;;;;;;2.78;0.98;;;;;;;-7.96;100.00;100294.09;5054587;28;20097;-71
2024/01/04 06:40:57;;;;;;;2.20;0.75;;;;;;;-7.75;100.00;100307.59;5054760;28;20040;-71
2024/01/04 06:43:23;;;;;;;2.17;0.93;;;;;;;-7.80;100.00;100300.06;5072533;28;20056;-71
2024/01/04 06:45:49;;;;;;;2.63;0.90;;;;;;;-7.77;100.00;100306.88;5038556;28;20025;-71
2024/01/04 06:48:14;;;;;;;2.08;1.02;;;;;;;-7.80;100.00;100302.66;5070967;28;20583;-71
2024/01/04 06:50:39;;;;;;;2.75;1.10;;;;;;;-7.95;100.00;100277.47;5054791;28;20044;-70
2024/01/04 06:53:05;;;;;;;2.08;0.80;;;;;;;-7.78;100.00;100313.88;5054396;28;20097;-71
2024/01/04 06:55:30;;;;;;;2.38;0.98;;;;;;;-7.71;100.00;100325.63;5071876;28;20029;-71
2024/01/04 06:57:56;;;;;;;3.80;1.10;;;;;;;-7.71;100.00;100323.00;5037663;28;20036;-70
2024/01/04 07:00:23;;;;;;;2.63;1.00;;;;;;;-7.72;100.00;100323.91;5053910;28;20028;-71
2024/01/04 07:02:48;;;;;;;2.80;1.00;;;;;;;-7.76;100.00;100327.66;5037701;28;20033;-71
2024/01/04 07:05:14;;;;;;;2.53;1.00;;;;;;;-7.67;100.00;100355.84;5070534;28;20039;-71
2024/01/04 07:07:39;;;;;;;1.90;0.73;;;;;;;-7.63;100.00;100338.19;5072009;28;20099;-70
2024/01/04 07:10:05;;;;;;;2.30;1.00;;;;;;;-7.69;100.00;100344.63;5053551;28;20024;-71
2024/01/04 07:12:32;;;;;;;2.22;1.10;;;;;;;-7.96;100.00;100307.97;5054293;28;20036;-71
2024/01/04 07:14:58;;;;;;;1.25;0.85;;;;;;;-7.71;100.00;100354.34;5071890;28;20099;-70
2024/01/04 07:17:23;;;;;;;3.05;1.10;;;;;;;-7.87;100.00;100338.75;5072092;28;20075;-70
2024/01/04 07:19:50;;;;;;;1.80;0.80;;;;;;;-7.69;100.00;100352.47;5053618;28;20026;-70
2024/01/04 07:22:16;;;;;;;3.80;1.20;;;;;;;-7.73;100.00;100361.44;5037386;28;20071;-71
2024/01/04 07:24:42;;;;;;;2.67;1.00;;;;;;;-7.87;100.00;100335.31;5072087;28;20021;-71
2024/01/04 07:27:08;;;;;;;1.50;0.80;;;;;;;-7.83;100.00;100355.09;5071956;28;20081;-70
2024/01/04 07:29:33;;;;;;;2.65;0.98;;;;;;;-7.77;100.00;100373.00;5054228;28;20024;-71
2024/01/04 07:31:59;;;;;;;2.40;0.85;;;;;;;-7.75;100.00;100375.50;5053691;28;20127;-71
2024/01/04 07:34:25;;;;;;;1.85;1.20;;;;;;;-7.82;100.00;100372.44;5083041;28;20111;-71
2024/01/04 07:36:51;;;;;;;3.88;0.98;;;;;;;-7.76;100.00;100382.50;5072157;28;20054;-71
2024/01/04 07:39:17;;;;;;;1.80;0.60;;;;;;;-7.77;100.00;100375.63;5071126;28;20032;-70
2024/01/04 07:41:43;;;;;;;4.45;0.98;;;;;;;-8.54;100.00;100259.34;5074411;28;20403;-71
2024/01/04 07:44:09;;;;;;;1.73;0.68;;;;;;;-7.72;100.00;100393.59;5053680;28;20048;-71
2024/01/04 07:46:35;;;;;;;2.50;0.98;;;;;;;-7.79;100.00;100382.69;5053284;28;20398;-71
2024/01/04 07:49:01;;;;;;;1.48;0.68;;;;;;;-7.85;100.00;100410.03;5071949;28;20020;-71
2024/01/04 07:51:26;;;;;;;1.70;1.02;;;;;;;-8.05;100.00;100376.41;5053804;28;20108;-71
2024/01/04 07:53:52;;;;;;;2.03;1.00;;;;;;;-7.89;100.00;100405.06;5056512;28;20071;-71
2024/01/04 07:56:17;;;;;;;3.03;0.98;;;;;;;-7.91;100.00;100405.16;5083591;28;20052;-71
2024/01/04 07:58:44;;;;;;;1.58;0.90;;;;;;;-7.91;100.00;100414.75;5055590;28;20174;-71
2024/01/04 08:01:09;;;;;;;3.42;1.00;;;;;;;-8.08;100.00;100387.03;5053208;28;20060;-71
2024/01/04 08:03:34;;;;;;;2.28;1.00;;;;;;;-7.95;100.00;100418.47;5056094;28;20563;-71
2024/01/04 08:06:00;;;;;;;1.58;1.10;;;;;;;-7.97;100.00;100421.19;5060320;28;20040;-71
2024/01/04 08:08:28;;;;;;;2.28;1.10;;;;;;;-8.48;100.00;100341.59;5060220;28;20043;-71
2024/01/04 08:10:54;;;;;;;1.83;0.82;;;;;;;-8.13;100.00;100402.97;5074489;28;20032;-71
2024/01/04 08:13:19;;;;;;;1.92;1.00;;;;;;;-8.02;100.00;100427.59;5044402;28;20033;-71
2024/01/04 08:15:44;;;;;;;2.22;0.88;;;;;;;-7.99;100.00;100433.50;5027008;28;20039;-71
2024/01/04 08:18:10;;;;;;;1.63;0.80;;;;;;;-8.08;100.00;100423.56;5063473;28;20078;-71
2024/01/04 08:20:35;;;;;;;1.98;1.05;;;;;;;-7.99;100.00;100453.53;5061455;28;20029;-71
2024/01/04 08:23:01;;;;;;;1.95;0.90;;;;;;;-8.10;100.00;100428.91;5060335;28;20394;-71
2024/01/04 08:25:27;;;;;;;3.58;1.25;;;;;;;-7.97;100.00;100449.91;5077942;28;20087;-71
2024/01/04 08:27:52;;;;;;;4.15;1.00;;;;;;;-8.04;100.00;100452.03;5043860;28;20490;-71
2024/01/04 08:30:18;;;;;;;3.58;0.90;;;;;;;-7.98;100.00;100461.28;5077731;28;20072;-71
2024/01/04 08:32:43;;;;;;;1.38;0.70;;;;;;;-7.96;100.00;100463.81;5059830;28;20402;-71
2024/01/04 08:35:08;;;;;;;1.85;0.85;;;;;;;-8.02;100.00;100438.06;5077364;28;20402;-71
2024/01/04 08:37:35;;;;;;;2.42;1.00;;;;;;;-7.96;100.00;100456.81;5043238;28;20056;-71
2024/01/04 08:40:00;;;;;;;2.08;0.63;;;;;;;-7.98;100.00;100468.25;5077397;28;20454;-71
2024/01/04 08:42:26;;;;;;;2.22;0.80;;;;;;;-7.92;100.00;100458.31;5060021;28;20076;-71
2024/01/04 08:44:51;;;;;;;2.28;1.05;;;;;;;-8.08;100.00;100432.28;5060659;28;20549;-72
2024/01/04 08:47:17;;;;;;;1.40;0.82;;;;;;;-7.94;100.00;100454.13;5060524;28;20412;-71
2024/01/04 08:49:42;;;;;;;2.63;1.13;;;;;;;-7.92;100.00;100458.31;5077191;28;20036;-71
2024/01/04 08:52:08;;;;;;;2.30;1.00;;;;;;;-7.88;100.00;100475.50;5078006;28;20078;-71
2024/01/04 08:54:34;;;;;;;1.42;0.75;;;;;;;-7.88;100.00;100467.66;5060847;28;20078;-71
2024/01/04 08:57:00;;;;;;;2.85;0.85;;;;;;;-7.84;100.00;100478.78;5077860;28;20032;-70
2024/01/04 08:59:25;;;;;;;5.38;0.80;;;;;;;-7.86;100.00;100484.06;5061737;28;20487;-71
2024/01/04 09:01:51;;;;;;;1.27;0.65;;;;;;;-7.91;100.00;100475.69;5027960;28;20041;-71
2024/01/04 09:04:18;;;;;;;0.93;0.60;;;;;;;-7.85;100.00;100482.28;5060666;28;20089;-71
2024/01/04 09:06:44;;;;;;;2.45;0.85;;;;;;;-7.81;100.00;100475.97;5078266;28;20395;-71
2024/01/04 09:09:10;;;;;;;1.67;0.98;;;;;;;-7.75;100.00;100491.25;5057216;28;20028;-73
2024/01/04 09:11:41;;;;;;;1.77;0.82;;;;;;;-7.75;100.00;100486.03;5063153;28;20119;-71
2024/01/04 09:14:11;;;;;;;1.63;1.08;;;;;;;-7.74;100.00;100487.75;5058818;28;20301;-71
2024/01/04 09:16:43;;;;;;;1.85;0.80;;;;;;;-7.72;100.00;100491.09;5074447;28;20027;-71
2024/01/04 09:19:12;;;;;;;1.85;0.95;;;;;;;-7.80;100.00;100477.66;5057863;28;20028;-71
2024/01/04 09:21:37;;;;;;;4.82;1.00;;;;;;;-7.80;100.00;100488.94;5074730;28;20028;-71
2024/01/04 09:24:03;;;;;;;1.63;0.73;;;;;;;-7.81;100.00;100489.03;5055708;28;20424;-71
2024/01/04 09:26:28;;;;;;;1.80;0.93;;;;;;;-7.67;100.00;100520.41;5073271;28;20452;-71
2024/01/04 09:28:54;;;;;;;3.08;0.93;;;;;;;-7.66;100.00;100516.84;5056058;28;20055;-71
2024/01/04 09:31:19;;;;;;;3.88;0.90;;;;;;;-7.62;100.00;100523.56;5055912;28;20021;-70
2024/01/04 09:33:45;;;;;;;1.35;0.85;;;;;;;-7.66;100.00;100522.09;5056013;28;20036;-71
2024/01/04 09:36:10;;;;;;;1.77;0.88;;;;;;;-7.75;100.00;100504.31;5039122;28;20041;-71
2024/01/04 09:38:35;;;;;;;1.33;0.80;;;;;;;-7.64;100.00;100535.91;5023088;28;20028;-71
2024/01/04 09:41:16;;;;;;;2.22;1.00;;;;;;;-7.73;100.00;100519.94;5055902;28;20113;-71
2024/01/04 09:43:41;;;;;;;1.75;0.88;;;;;;;-7.66;100.00;100537.75;5074205;28;20051;-71
2024/01/04 09:46:08;;;;;;;1.75;1.00;;;;;;;-7.64;100.00;100530.69;5074181;28;20021;-71
2024/01/04 09:48:38;;;;;;;1.05;0.90;;;;;;;-7.71;100.00;100528.53;5040347;28;20040;-70
2024/01/04 09:51:04;;;;;;;1.48;0.80;;;;;;;-7.80;100.00;100514.22;5058844;28;20024;-71
2024/01/04 09:53:31;;;;;;;1.55;0.90;;;;;;;-7.68;100.00;100526.56;5045170;28;20119;-71
2024/01/04 09:55:59;;;;;;;1.42;0.68;;;;;;;-7.71;100.00;100516.31;5073653;28;20036;-71
2024/01/04 09:58:25;;;;;;;1.35;0.70;;;;;;;-7.65;100.00;100538.59;5056977;28;20036;-71
2024/01/04 10:00:54;;;;;;;2.25;0.70;;;;;;;-7.67;100.00;100535.25;5074234;28;20028;-71
2024/01/04 10:03:20;;;;;;;2.58;1.05;;;;;;;-7.62;100.00;100543.63;5074289;28;20032;-71
2024/01/04 10:05:46;;;;;;;2.42;0.93;;;;;;;-7.69;100.00;100524.88;5056634;28;20119;-71
2024/01/04 10:08:29;;;;;;;5.47;0.65;;;;;;;-7.65;100.00;100547.28;5074120;28;20036;-71
2024/01/04 10:11:00;;;;;;;1.90;1.10;;;;;;;-7.69;100.00;100543.16;5072693;28;20039;-71
2024/01/04 10:13:27;;;;;;;2.35;0.88;;;;;;;-7.71;100.00;100542.41;5072570;28;20028;-71
2024/01/04 10:15:52;;;;;;;2.20;0.82;;;;;;;-7.64;100.00;100533.28;5073520;28;20028;-72
2024/01/04 10:18:18;;;;;;;3.25;1.27;;;;;;;-7.75;100.00;100525.22;5074362;28;20505;-71
2024/01/04 10:21:05;;;;;;;2.50;1.30;;;;;;;-7.59;100.00;100559.13;5055178;28;20120;-71
2024/01/04 10:23:33;;;;;;;2.65;1.20;;;;;;;-7.57;100.00;100558.13;5071760;28;20399;-71
2024/01/04 10:26:09;;;;;;;4.38;1.00;;;;;;;-7.65;100.00;100549.03;5054549;28;20043;-71
2024/01/04 10:28:35;;;;;;;3.75;0.73;;;;;;;-7.62;100.00;100564.53;5072969;28;20032;-71
2024/01/04 10:31:03;;;;;;;2.03;0.90;;;;;;;-7.62;100.00;100557.53;5055180;28;20024;-71
2024/01/04 10:33:29;;;;;;;2.28;1.08;;;;;;;-7.60;100.00;100579.22;5072842;28;20443;-72
2024/01/04 10:35:54;;;;;;;2.00;0.95;;;;;;;-7.60;100.00;100573.16;5038275;28;20459;-71
2024/01/04 10:38:22;;;;;;;1.95;1.10;;;;;;;-7.52;100.00;100572.69;5054482;28;20098;-72
2024/01/04 10:40:58;;;;;;;4.70;1.10;;;;;;;-7.60;100.00;100573.97;5073500;28;20055;-71
2024/01/04 10:43:24;;;;;;;2.53;1.33;;;;;;;-7.59;100.00;100567.81;5072915;28;20115;-72
2024/01/04 10:45:49;;;;;;;2.58;0.85;;;;;;;-7.61;100.00;100568.84;5023587;28;20131;-72
2024/01/04 10:48:14;;;;;;;2.13;1.10;;;;;;;-7.50;100.00;100576.06;5056446;28;20040;-72
2024/01/04 10:50:42;;;;;;;2.22;0.90;;;;;;;-7.47;100.00;100595.03;5039868;28;20412;-71
2024/01/04 10:53:12;;;;;;;1.73;0.80;;;;;;;-7.62;100.00;100564.53;5039516;28;20028;-71
2024/01/04 10:55:38;;;;;;;1.83;1.10;;;;;;;-7.70;100.00;100572.00;5055523;28;20491;-71
2024/01/04 10:58:05;;;;;;;2.08;0.80;;;;;;;-7.72;100.00;100558.16;5073073;28;20040;-71
2024/01/04 11:00:33;;;;;;;3.47;1.20;;;;;;;-7.52;100.00;100606.66;5072931;28;20035;-71
2024/01/04 11:03:00;;;;;;;1.40;0.90;;;;;;;-7.68;100.00;100565.75;5059126;28;20031;-69
2024/01/04 11:05:27;;;;;;;3.72;1.20;;;;;;;-7.56;100.00;100606.00;5078493;28;20024;-68
2024/01/04 11:07:55;;;;;;;1.88;1.00;;;;;;;-7.64;100.00;100603.84;5077821;28;20041;-70
2024/01/04 11:10:22;;;;;;;2.53;1.10;;;;;;;-7.52;100.00;100601.44;5060442;28;20031;-70
2024/01/04 11:12:48;;;;;;;1.95;1.08;;;;;;;-7.57;100.00;100606.94;5058461;28;20410;-71
2024/01/04 11:15:15;;;;;;;2.22;1.30;;;;;;;-7.52;100.00;100617.94;5054842;28;20403;-71